Flight Track Log - Related Links

Times and Time Zones

All times are in EDT time to prevent confusion due to time zone crossing. See the ASQ4540 flight status page for this flight to view local times or setup timezone preferences in your user account.

Time Position Orientation Groundspeed Altitude Reporting Facility
EDT Latitude Longitude Course Direction KTS MPH feet Rate Location/Type
Tue 02:47:33 PM 43.6833 -79.5333 90° East 190 219 3,300  Level Toronto Center
Tue 02:48:33 PM 43.6833 -79.4667 119° Southeast 230 265 5,500 2,450 Climbing Toronto Center
Tue 02:49:33 PM 43.6500 -79.3833 125° Southeast 270 311 8,200 2,650 Climbing Toronto Center
Tue 02:50:33 PM 43.6000 -79.2833 121° Southeast 280 322 10,800 2,250 Climbing Toronto Center
Tue 02:51:33 PM 43.5500 -79.1667 130° Southeast 320 368 12,700 1,900 Climbing Toronto Center
Tue 02:52:33 PM 43.5000 -79.0833 121° Southeast 350 403 14,600 1,900 Climbing Toronto Center
Tue 02:53:33 PM 43.4500 -78.9667 124° Southeast 360 414 16,500 1,950 Climbing Toronto Center
Tue 02:54:33 PM 43.3833 -78.8333 120° Southeast 370 426 18,500 1,950 Climbing Toronto Center
Tue 02:55:33 PM 43.3333 -78.7167 115° Southeast 380 437 20,400 1,907 Climbing Toronto Center
Tue 02:56:42 PM 43.2869 -78.5811 111° Southeast 372 428 22,600 1,907 Climbing Cleveland Center
Tue 02:57:42 PM 43.2492 -78.4483 113° Southeast 397 457 24,500 1,190 Climbing Cleveland Center
Tue 02:58:43 PM 43.2047 -78.3019 114° Southeast 405 466 25,000 250 Climbing Cleveland Center
Tue 02:59:42 PM 43.1558 -78.1500 114° Southeast 420 483 25,000  Level Cleveland Center
Tue 03:00:42 PM 43.1044 -77.9900 115° Southeast 446 513 25,000 100 Level Cleveland Center
Tue 03:01:42 PM 43.0483 -77.8244 114° Southeast 462 532 25,200 500 Climbing Cleveland Center
Tue 03:02:42 PM 42.9989 -77.6706 112° Southeast 461 531 26,000 750 Climbing Cleveland Center
Tue 03:03:42 PM 42.9531 -77.5167 115° Southeast 449 517 26,700 500 Climbing Cleveland Center
Tue 03:04:42 PM 42.8989 -77.3578 115° Southeast 449 517 27,000 105 Climbing Cleveland Center
Tue 03:06:33 PM 42.7833 -77.0167 112° Southeast 470 541 27,000  Level Toronto Center
Tue 03:07:51 PM 42.7283 -76.8303 115° Southeast 463 533 27,000  Level Boston Center
Tue 03:08:51 PM 42.6719 -76.6653 119° Southeast 469 540 27,000  Level Boston Center
Tue 03:09:52 PM 42.6050 -76.5025 121° Southeast 479 551 27,000  Level Boston Center
Tue 03:10:51 PM 42.5372 -76.3517 122° Southeast 479 551 27,000  Level Boston Center
Tue 03:11:51 PM 42.4694 -76.2036 122° Southeast 479 551 27,000  Level Boston Center
Tue 03:12:51 PM 42.4011 -76.0533 122° Southeast 456 525 27,000 -250 Level Boston Center
Tue 03:13:51 PM 42.3308 -75.9003 121° Southeast 474 545 26,500 -800 Descending Boston Center
Tue 03:14:51 PM 42.2644 -75.7508 121° Southeast 474 545 25,400 -1,100 Descending Boston Center
Tue 03:15:51 PM 42.1981 -75.6014 123° Southeast 469 540 24,300 -1,650 Descending Boston Center
Tue 03:16:51 PM 42.1308 -75.4608 122° Southeast 464 534 22,100 -2,200 Descending Boston Center
Tue 03:17:51 PM 42.0697 -75.3292 118° Southeast 443 510 19,900 -2,200 Descending Boston Center
Tue 03:18:51 PM 42.0167 -75.1928 117° Southeast 425 489 17,700 -1,400 Descending Boston Center
Tue 03:19:51 PM 41.9658 -75.0592 115° Southeast 407 468 17,100 -300 Descending Boston Center
Tue 03:20:51 PM 41.9167 -74.9206 118° Southeast 402 463 17,100 -50 Level Boston Center
Tue 03:21:51 PM 41.8672 -74.7958 86° East 395 455 17,000  Descending Boston Center
Tue 03:22:51 PM 41.8742 -74.6650 89° East 351 404 17,100 50 Climbing Boston Center
Tue 03:23:51 PM 41.8764 -74.5425 91° East 340 391 17,100  Level Boston Center
Tue 03:24:51 PM 41.8744 -74.4197 143° Southeast 334 384 17,100 -750 Level Boston Center
Tue 03:25:51 PM 41.8089 -74.3536 161° South 270 311 15,600 -1,800 Descending Boston Center
Tue 03:26:51 PM 41.7264 -74.3150 184° South 300 345 13,500 -2,200 Descending Boston Center
Tue 03:27:51 PM 41.6428 -74.3236 192° South 305 351 11,200 -2,600 Descending Boston Center
Tue 03:28:51 PM 41.5631 -74.3461 136° Southeast 305 351 8,300 -2,050 Descending Boston Center
Tue 03:29:51 PM 41.5142 -74.2836 196° South 260 299 7,100 -404 Descending Boston Center
Tue 03:32:04 PM 41.3833 -74.3333 217° Southwest 275 316 7,000 -30 Descending New York TRACON
Tue 03:33:10 PM 41.3167 -74.4000 217° Southwest 273 314 7,000  Level New York TRACON
Tue 03:34:04 PM 41.2667 -74.4500 201° Southwest 271 312 7,000 -526 Level New York TRACON
Tue 03:35:04 PM 41.2000 -74.4833 201° Southwest 274 315 6,000 -500 Descending New York TRACON
Tue 03:36:04 PM 41.1333 -74.5167 189° South 258 297 6,000  Level New York TRACON
Tue 03:37:04 PM 41.0500 -74.5333 180° South 270 311 6,000  Level New York TRACON
Tue 03:38:04 PM 40.9833 -74.5333 191° South 272 313 6,000  Level New York TRACON
Tue 03:38:58 PM 40.9167 -74.5500 201° Southwest 272 313 6,000 50 Level New York TRACON
Tue 03:40:04 PM 40.8500 -74.5833 191° South 235 270 6,100  Climbing New York TRACON
Tue 03:40:58 PM 40.7833 -74.6000 191° South 242 278 6,000 -500 Descending New York TRACON
Tue 03:42:04 PM 40.7167 -74.6167 191° South 241 277 5,100 -476 Descending New York TRACON
Tue 03:43:04 PM 40.6500 -74.6333 169° South 239 275 5,000 -53 Descending New York TRACON
Tue 03:43:58 PM 40.5833 -74.6167 180° South 235 270 5,000  Level New York TRACON
Tue 03:45:04 PM 40.5167 -74.6167 180° South 237 273 5,000  Level New York TRACON
Tue 03:46:04 PM 40.4500 -74.6167 169° South 246 283 5,000  Level New York TRACON
Tue 03:46:58 PM 40.3833 -74.6000 131° Southeast 245 282 5,000 -250 Level New York TRACON
Tue 03:48:04 PM 40.3500 -74.5500 131° Southeast 190 219 4,500 -476 Descending New York TRACON
Tue 03:49:04 PM 40.3167 -74.5000 90° East 192 221 4,000 -400 Descending New York TRACON
Tue 03:50:04 PM 40.3167 -74.4333 49° Northeast 194 223 3,700 -500 Descending New York TRACON
Tue 03:51:04 PM 40.3500 -74.3833 49° Northeast 180 207 3,000 -700 Descending New York TRACON

Login

Don't have an account? Register now (free) for customized features, flight alerts, and more!